createdAt,value
2018-11-14T00:00:20.577Z,6.50
2018-11-14T00:02:52.108Z,5.03
2018-11-14T00:05:20.805Z,5.13
2018-11-14T00:07:49.532Z,7.73
2018-11-14T00:10:18.929Z,4.17
2018-11-14T00:12:47.262Z,4.10
2018-11-14T00:15:17.272Z,6.87
2018-11-14T00:17:46.700Z,9.00
2018-11-14T00:20:15.357Z,3.63
2018-11-14T00:22:45.196Z,4.43
2018-11-14T00:25:13.712Z,5.73
2018-11-14T00:27:42.217Z,12.33
2018-11-14T00:30:13.188Z,5.57
2018-11-14T00:32:41.932Z,11.43
2018-11-14T00:35:11.188Z,7.33
2018-11-14T00:37:40.049Z,9.60
2018-11-14T00:40:10.089Z,10.57
2018-11-14T00:42:38.777Z,6.40
2018-11-14T00:45:09.564Z,8.70
2018-11-14T00:47:38.123Z,8.30
2018-11-14T00:50:07.536Z,7.03
2018-11-14T00:52:36.380Z,5.57
2018-11-14T00:55:05.547Z,6.13
2018-11-14T00:57:34.616Z,6.23
2018-11-14T01:00:03.269Z,4.63
2018-11-14T01:02:31.781Z,5.27
2018-11-14T01:05:00.316Z,4.20
2018-11-14T01:07:28.812Z,4.83
2018-11-14T01:09:57.352Z,6.37
2018-11-14T01:12:25.894Z,6.30
2018-11-14T01:14:54.660Z,4.37
2018-11-14T01:17:23.197Z,4.63
2018-11-14T01:19:51.771Z,5.33
2018-11-14T01:22:20.732Z,5.50
2018-11-14T01:24:49.336Z,4.70
2018-11-14T01:27:18.095Z,4.33
2018-11-14T01:29:46.571Z,5.17
2018-11-14T01:32:15.336Z,5.10
2018-11-14T01:34:44.045Z,10.97
2018-11-14T01:37:12.576Z,3.97
2018-11-14T01:39:41.312Z,4.20
2018-11-14T01:42:09.804Z,3.37
2018-11-14T01:44:38.340Z,3.30
2018-11-14T01:47:06.924Z,8.73
2018-11-14T01:49:35.484Z,3.33
2018-11-14T01:52:04.327Z,4.57
2018-11-14T01:54:32.887Z,3.50
2018-11-14T01:57:01.432Z,3.80
2018-11-14T01:59:30.033Z,5.10
2018-11-14T02:01:58.600Z,2.60
2018-11-14T02:04:27.228Z,5.23
2018-11-14T02:06:55.763Z,4.70
2018-11-14T02:09:24.284Z,4.53
2018-11-14T02:11:52.862Z,4.30
2018-11-14T02:14:21.448Z,6.13
2018-11-14T02:16:50.035Z,4.40
2018-11-14T02:19:18.516Z,5.33
2018-11-14T02:21:47.063Z,5.93
2018-11-14T02:24:15.572Z,8.30
2018-11-14T02:26:44.131Z,3.60
2018-11-14T02:29:12.745Z,3.40
2018-11-14T02:31:41.237Z,3.77
2018-11-14T02:34:09.827Z,4.27
2018-11-14T02:36:38.419Z,4.90
2018-11-14T02:39:08.425Z,12.17
2018-11-14T02:41:36.924Z,4.50
2018-11-14T02:44:05.667Z,4.13
2018-11-14T02:46:34.241Z,4.33
2018-11-14T02:49:02.732Z,6.80
2018-11-14T02:51:31.334Z,8.80
2018-11-14T02:53:59.906Z,4.33
2018-11-14T02:56:28.496Z,8.53
2018-11-14T02:58:57.061Z,6.00
2018-11-14T03:01:25.553Z,5.70
2018-11-14T03:03:54.085Z,6.87
2018-11-14T03:06:22.569Z,8.67
2018-11-14T03:08:51.183Z,9.60
2018-11-14T03:11:19.760Z,22.73
2018-11-14T03:13:48.343Z,47.50
2018-11-14T03:16:16.965Z,42.73
2018-11-14T03:18:45.446Z,39.87
2018-11-14T03:21:14.013Z,65.70
2018-11-14T03:23:42.572Z,29.27
2018-11-14T03:26:11.173Z,34.97
2018-11-14T03:28:39.763Z,13.63
2018-11-14T03:31:08.271Z,52.17
2018-11-14T03:33:36.824Z,25.23
2018-11-14T03:36:10.913Z,59.37
2018-11-14T03:38:39.568Z,42.80
2018-11-14T03:41:08.188Z,27.90
2018-11-14T03:43:36.766Z,45.33
2018-11-14T03:46:05.719Z,50.90
2018-11-14T03:48:34.203Z,56.33
2018-11-14T03:51:02.729Z,29.37
2018-11-14T03:53:31.260Z,105.10
2018-11-14T03:55:59.788Z,45.53
2018-11-14T03:58:28.411Z,108.10
2018-11-14T04:00:56.884Z,143.93
2018-11-14T04:03:25.416Z,119.33
2018-11-14T04:05:54.021Z,128.73
2018-11-14T04:08:22.628Z,128.07
2018-11-14T04:10:51.216Z,179.43
2018-11-14T04:13:19.768Z,144.40
2018-11-14T04:15:48.366Z,129.87
2018-11-14T04:18:16.960Z,180.73
2018-11-14T04:20:45.528Z,175.47
2018-11-14T04:23:14.044Z,187.57
2018-11-14T04:25:42.583Z,152.03
2018-11-14T04:28:11.432Z,114.47
2018-11-14T04:30:39.958Z,175.90
2018-11-14T04:33:08.547Z,201.63
2018-11-14T04:35:37.162Z,252.83
2018-11-14T04:38:05.837Z,179.43
2018-11-14T04:40:34.368Z,130.37
2018-11-14T04:43:02.865Z,79.70
2018-11-14T04:45:31.346Z,76.80
2018-11-14T04:48:00.057Z,141.20
2018-11-14T04:50:28.548Z,106.57
2018-11-14T04:52:57.287Z,114.60
2018-11-14T04:55:26.637Z,41.97
2018-11-14T04:57:55.452Z,61.53
2018-11-14T05:00:25.131Z,70.13
2018-11-14T05:02:53.737Z,22.77
2018-11-14T05:05:23.661Z,33.47
2018-11-14T05:07:52.180Z,70.17
2018-11-14T05:10:22.370Z,71.67
2018-11-14T05:12:52.059Z,108.57
2018-11-14T05:15:21.906Z,64.97
2018-11-14T05:17:51.653Z,76.13
2018-11-14T05:20:20.996Z,64.83
2018-11-14T05:22:49.770Z,49.67
2018-11-14T05:25:18.643Z,37.90
2018-11-14T05:27:47.240Z,59.57
2018-11-14T05:30:19.400Z,103.43
2018-11-14T05:32:48.843Z,69.83
2018-11-14T05:35:17.850Z,28.73
2018-11-14T05:37:46.824Z,53.00
2018-11-14T05:40:19.604Z,55.27
2018-11-14T05:42:48.792Z,105.33
2018-11-14T05:45:19.876Z,126.13
2018-11-14T05:47:48.389Z,59.03
2018-11-14T05:50:18.143Z,92.57
2018-11-14T05:52:46.632Z,33.10
2018-11-14T05:55:15.803Z,41.93
2018-11-14T05:57:44.383Z,160.90
2018-11-14T06:00:17.424Z,147.60
2018-11-14T06:02:46.736Z,125.07
2018-11-14T06:05:15.288Z,11.80
2018-11-14T06:07:43.815Z,142.30
2018-11-14T06:10:13.221Z,161.00
2018-11-14T06:12:42.544Z,49.50
2018-11-14T06:15:14.023Z,109.00
2018-11-14T06:17:43.592Z,135.60
2018-11-14T06:20:14.052Z,47.47
2018-11-14T06:22:43.619Z,32.83
2018-11-14T06:25:17.414Z,58.73
2018-11-14T06:27:46.040Z,44.03
2018-11-14T06:30:14.516Z,125.80
2018-11-14T06:32:43.052Z,80.10
2018-11-14T06:35:11.628Z,124.37
2018-11-14T06:37:40.131Z,89.67
2018-11-14T06:40:10.485Z,148.97
2018-11-14T06:42:39.565Z,101.83
2018-11-14T06:45:10.615Z,60.80
2018-11-14T06:47:39.384Z,146.13
2018-11-14T06:50:09.324Z,155.50
2018-11-14T06:52:38.225Z,84.83
2018-11-14T06:55:07.985Z,69.87
2018-11-14T06:57:36.809Z,104.27
2018-11-14T07:00:07.076Z,140.80
2018-11-14T07:02:38.338Z,82.90
2018-11-14T07:05:04.614Z,91.47
2018-11-14T07:07:33.008Z,112.00
2018-11-14T07:10:01.512Z,31.57
2018-11-14T07:12:30.124Z,63.53
2018-11-14T07:14:58.698Z,39.37
2018-11-14T07:17:27.164Z,45.60
2018-11-14T07:19:55.767Z,76.97
2018-11-14T07:22:24.328Z,58.93
2018-11-14T07:24:52.825Z,67.13
2018-11-14T07:27:21.407Z,35.03
2018-11-14T07:29:50.004Z,41.00
2018-11-14T07:32:18.592Z,25.00
2018-11-14T07:34:47.325Z,76.33
2018-11-14T07:37:15.831Z,106.57
2018-11-14T07:39:44.416Z,110.40
2018-11-14T07:42:13.036Z,103.57
2018-11-14T07:44:41.608Z,127.80
2018-11-14T07:47:10.172Z,42.67
2018-11-14T07:49:38.906Z,69.07
2018-11-14T07:52:07.452Z,95.63
2018-11-14T07:54:36.036Z,32.97
2018-11-14T07:57:04.524Z,31.87
2018-11-14T07:59:33.068Z,61.27
2018-11-14T08:02:02.190Z,64.87
2018-11-14T08:04:30.662Z,48.43
2018-11-14T08:06:59.248Z,33.90
2018-11-14T08:09:27.829Z,48.03
2018-11-14T08:11:56.575Z,30.83
2018-11-14T08:14:25.100Z,67.13
2018-11-14T08:16:53.660Z,36.77
2018-11-14T08:19:22.200Z,55.23
2018-11-14T08:21:50.756Z,26.30
2018-11-14T08:24:19.300Z,47.07
2018-11-14T08:26:47.903Z,35.53
2018-11-14T08:29:16.368Z,27.67
2018-11-14T08:31:44.876Z,9.10
2018-11-14T08:34:13.465Z,12.03
2018-11-14T08:36:42.156Z,14.93
2018-11-14T08:39:10.740Z,12.47
2018-11-14T08:41:39.316Z,24.73
2018-11-14T08:44:08.006Z,15.13
2018-11-14T08:46:36.563Z,26.67
2018-11-14T08:49:05.196Z,4.83
2018-11-14T08:51:33.672Z,25.23
2018-11-14T08:54:02.240Z,26.30
2018-11-14T08:56:30.815Z,23.80
2018-11-14T08:58:59.400Z,33.70
2018-11-14T09:01:28.148Z,29.03
2018-11-14T09:03:56.669Z,50.47
2018-11-14T09:06:25.184Z,26.80
2018-11-14T09:08:53.736Z,40.00
2018-11-14T09:11:22.575Z,34.00
2018-11-14T09:13:51.050Z,24.10
2018-11-14T09:16:19.588Z,53.23
2018-11-14T09:18:48.260Z,57.00
2018-11-14T09:21:16.764Z,29.07
2018-11-14T09:23:45.250Z,38.27
2018-11-14T09:26:13.808Z,40.73
2018-11-14T09:28:42.374Z,19.90
2018-11-14T09:31:10.904Z,9.33
2018-11-14T09:33:39.372Z,23.70
2018-11-14T09:36:07.988Z,21.43
2018-11-14T09:38:36.532Z,24.43
2018-11-14T09:41:05.485Z,32.10
2018-11-14T09:43:33.979Z,23.00
2018-11-14T09:46:02.504Z,22.13
2018-11-14T09:48:31.101Z,26.17
2018-11-14T09:50:59.674Z,24.43
2018-11-14T09:53:28.226Z,13.37
2018-11-14T09:55:56.824Z,19.90
2018-11-14T09:58:25.603Z,14.40
2018-11-14T10:00:54.188Z,9.27
2018-11-14T10:03:22.799Z,28.40
2018-11-14T10:05:51.351Z,40.67
2018-11-14T10:08:19.812Z,26.27
2018-11-14T10:10:48.401Z,20.07
2018-11-14T10:13:16.887Z,20.50
2018-11-14T10:15:45.497Z,21.83
2018-11-14T10:18:13.900Z,16.47
2018-11-14T10:20:42.460Z,17.67
2018-11-14T10:23:11.156Z,27.73
2018-11-14T10:25:40.002Z,28.30
2018-11-14T10:28:08.592Z,24.30
2018-11-14T10:30:37.109Z,26.17
2018-11-14T10:33:05.820Z,15.20
2018-11-14T10:35:34.723Z,25.23
2018-11-14T10:38:03.348Z,24.03
2018-11-14T10:40:31.960Z,23.23
2018-11-14T10:43:00.538Z,32.30
2018-11-14T10:45:29.376Z,31.03
2018-11-14T10:47:57.839Z,13.37
2018-11-14T10:50:27.532Z,32.60
2018-11-14T10:52:56.102Z,20.27
2018-11-14T10:55:24.918Z,28.90
2018-11-14T10:57:54.178Z,60.87
2018-11-14T11:00:31.965Z,40.73
2018-11-14T11:03:06.740Z,35.13
2018-11-14T11:05:44.241Z,33.87
2018-11-14T11:08:19.180Z,19.00
2018-11-14T11:10:53.654Z,32.00
2018-11-14T11:13:27.519Z,29.80
2018-11-14T11:16:01.631Z,26.43
2018-11-14T11:18:34.451Z,32.27
2018-11-14T11:21:03.179Z,25.87
2018-11-14T11:23:31.761Z,34.03
2018-11-14T11:26:00.332Z,21.77
2018-11-14T11:28:28.936Z,23.40
2018-11-14T11:30:57.647Z,24.47
2018-11-14T11:33:26.205Z,23.13
2018-11-14T11:35:54.700Z,19.30
2018-11-14T11:38:23.361Z,28.87
2018-11-14T11:40:51.873Z,28.10
2018-11-14T11:43:20.385Z,25.87
2018-11-14T11:45:50.736Z,24.43
2018-11-14T11:48:19.472Z,31.73
2018-11-14T11:50:53.038Z,29.37
2018-11-14T11:53:22.363Z,29.53
2018-11-14T11:55:53.236Z,38.83
2018-11-14T11:58:21.748Z,23.27
2018-11-14T12:00:50.368Z,34.60
2018-11-14T12:03:18.860Z,40.53
2018-11-14T12:05:47.380Z,31.47
2018-11-14T12:08:15.893Z,23.90
2018-11-14T12:10:44.504Z,20.07
2018-11-14T12:13:13.138Z,28.60
2018-11-14T12:15:41.641Z,31.47
2018-11-14T12:18:10.196Z,25.90
2018-11-14T12:20:38.768Z,34.67
2018-11-14T12:23:07.285Z,16.80
2018-11-14T12:25:35.876Z,12.73
2018-11-14T12:28:04.518Z,16.13
2018-11-14T12:30:33.094Z,12.60
2018-11-14T12:33:01.647Z,12.10
2018-11-14T12:35:30.207Z,8.87
2018-11-14T12:37:58.814Z,10.97
2018-11-14T12:40:27.292Z,11.00
2018-11-14T12:42:55.841Z,15.77
2018-11-14T12:45:24.380Z,17.10
2018-11-14T12:47:52.860Z,17.37
2018-11-14T12:50:21.536Z,16.67
2018-11-14T12:52:50.093Z,14.07
2018-11-14T12:55:19.411Z,13.67
2018-11-14T12:57:47.960Z,14.63
2018-11-14T13:00:18.149Z,18.03
2018-11-14T13:02:46.666Z,18.63
2018-11-14T13:05:16.176Z,11.60
2018-11-14T13:07:45.036Z,23.90
2018-11-14T13:10:14.844Z,13.70
2018-11-14T13:12:44.197Z,15.30
2018-11-14T13:15:13.791Z,23.97
2018-11-14T13:17:43.182Z,16.80
2018-11-14T13:20:16.263Z,24.50
2018-11-14T13:22:45.274Z,17.60
2018-11-14T13:25:14.732Z,24.73
2018-11-14T13:27:44.500Z,25.37
2018-11-14T13:30:15.304Z,25.13
2018-11-14T13:32:44.616Z,24.47
2018-11-14T13:35:14.560Z,21.23
2018-11-14T13:37:43.822Z,34.60
2018-11-14T13:40:12.605Z,29.63
2018-11-14T13:42:41.513Z,27.53
2018-11-14T13:45:11.883Z,22.53
2018-11-14T13:47:40.780Z,36.07
2018-11-14T13:50:12.388Z,29.23
2018-11-14T13:52:41.024Z,26.47
2018-11-14T13:55:11.727Z,27.43
2018-11-14T13:57:41.004Z,24.20
2018-11-14T14:00:11.349Z,25.10
2018-11-14T14:02:39.941Z,19.67
2018-11-14T14:05:10.832Z,21.57
2018-11-14T14:07:39.364Z,21.40
2018-11-14T14:10:09.316Z,28.63
2018-11-14T14:12:38.240Z,26.03
2018-11-14T14:15:09.448Z,32.70
2018-11-14T14:17:38.172Z,35.93
2018-11-14T14:20:07.960Z,35.60
2018-11-14T14:22:36.542Z,42.13
2018-11-14T14:25:06.396Z,30.27
2018-11-14T14:27:34.900Z,37.30
2018-11-14T14:30:03.471Z,37.73
2018-11-14T14:32:31.944Z,37.80
2018-11-14T14:35:00.588Z,33.90
2018-11-14T14:37:29.127Z,31.20
2018-11-14T14:39:57.881Z,36.70
2018-11-14T14:42:26.432Z,40.03
2018-11-14T14:44:55.007Z,33.63
2018-11-14T14:47:23.661Z,41.60
2018-11-14T14:49:52.178Z,42.10
2018-11-14T14:52:20.901Z,34.07
2018-11-14T14:54:49.447Z,44.67
2018-11-14T14:57:17.957Z,33.57
2018-11-14T14:59:46.457Z,40.27
2018-11-14T15:02:14.943Z,45.40
2018-11-14T15:04:44.157Z,45.77
2018-11-14T15:07:12.621Z,39.00
2018-11-14T15:09:41.186Z,38.23
2018-11-14T15:12:09.717Z,46.30
2018-11-14T15:14:38.904Z,42.33
2018-11-14T15:17:07.420Z,44.33
2018-11-14T15:19:35.992Z,51.90
2018-11-14T15:22:04.792Z,38.83
2018-11-14T15:24:33.304Z,38.40
2018-11-14T15:27:02.082Z,36.27
2018-11-14T15:29:30.708Z,42.27
2018-11-14T15:31:59.220Z,36.13
2018-11-14T15:34:27.873Z,46.10
2018-11-14T15:36:56.400Z,38.43
2018-11-14T15:39:24.935Z,44.97
2018-11-14T15:41:53.468Z,36.00
2018-11-14T15:44:22.048Z,38.53
2018-11-14T15:46:50.686Z,39.83
2018-11-14T15:49:20.124Z,43.93
2018-11-14T15:51:48.695Z,48.67
2018-11-14T15:54:17.359Z,44.33
2018-11-14T15:56:45.840Z,38.63
2018-11-14T15:59:14.349Z,50.33
2018-11-14T16:01:42.952Z,40.97
2018-11-14T16:04:11.736Z,52.97
2018-11-14T16:06:40.320Z,46.90
2018-11-14T16:09:11.707Z,47.60
2018-11-14T16:11:40.665Z,40.50
2018-11-14T16:14:09.226Z,41.37
2018-11-14T16:16:37.892Z,45.20
2018-11-14T16:19:06.808Z,59.00
2018-11-14T16:21:35.376Z,62.67
2018-11-14T16:24:03.896Z,63.40
2018-11-14T16:26:32.424Z,58.60
2018-11-14T16:29:00.933Z,40.50
2018-11-14T16:31:29.846Z,61.40
2018-11-14T16:33:58.438Z,60.10
2018-11-14T16:36:27.004Z,54.37
2018-11-14T16:38:55.604Z,64.83
2018-11-14T16:41:24.140Z,61.20
2018-11-14T16:43:52.667Z,60.70
2018-11-14T16:46:21.276Z,50.57
2018-11-14T16:48:49.840Z,60.70
2018-11-14T16:51:18.380Z,57.83
2018-11-14T16:53:47.796Z,64.70
2018-11-14T16:56:16.401Z,56.10
2018-11-14T16:58:44.954Z,54.03
2018-11-14T17:01:13.572Z,55.47
2018-11-14T17:03:42.235Z,66.13
2018-11-14T17:06:10.876Z,69.80
2018-11-14T17:08:39.546Z,68.73
2018-11-14T17:11:08.232Z,70.50
2018-11-14T17:13:36.969Z,79.47
2018-11-14T17:16:06.545Z,70.67
2018-11-14T17:18:35.201Z,51.90
2018-11-14T17:21:05.608Z,62.20
2018-11-14T17:23:34.315Z,54.53
2018-11-14T17:26:02.984Z,59.93
2018-11-14T17:28:31.684Z,55.17
2018-11-14T17:31:00.988Z,50.47
2018-11-14T17:33:29.651Z,60.20
2018-11-14T17:35:58.395Z,57.80
2018-11-14T17:38:28.511Z,58.40
2018-11-14T17:40:58.129Z,62.90
2018-11-14T17:43:27.536Z,71.77
2018-11-14T17:45:57.415Z,63.63
2018-11-14T17:48:26.616Z,66.57
2018-11-14T17:50:55.386Z,66.60
2018-11-14T17:53:24.889Z,78.27
2018-11-14T17:55:54.512Z,82.93
2018-11-14T17:58:23.152Z,76.83
2018-11-14T18:00:51.759Z,68.33
2018-11-14T18:03:20.352Z,75.60
2018-11-14T18:05:48.908Z,77.77
2018-11-14T18:08:17.472Z,66.87
2018-11-14T18:10:47.073Z,71.83
2018-11-14T18:13:15.576Z,65.47
2018-11-14T18:15:44.092Z,72.47
2018-11-14T18:18:12.648Z,70.37
2018-11-14T18:20:41.156Z,60.53
2018-11-14T18:23:09.844Z,83.33
2018-11-14T18:25:38.359Z,71.13
2018-11-14T18:28:07.019Z,76.20
2018-11-14T18:30:35.692Z,69.03
2018-11-14T18:33:04.159Z,75.93
2018-11-14T18:35:32.876Z,64.23
2018-11-14T18:38:01.541Z,74.37
2018-11-14T18:40:31.539Z,64.40
2018-11-14T18:43:00.112Z,69.63
2018-11-14T18:45:30.656Z,75.03
2018-11-14T18:48:00.184Z,78.17
2018-11-14T18:50:29.060Z,75.53
2018-11-14T18:52:58.278Z,81.87
2018-11-14T18:55:28.380Z,71.00
2018-11-14T18:57:57.407Z,72.80
2018-11-14T19:00:27.192Z,79.03
2018-11-14T19:02:55.839Z,69.63
2018-11-14T19:05:24.489Z,64.27
2018-11-14T19:07:53.127Z,67.30
2018-11-14T19:10:23.212Z,39.17
2018-11-14T19:12:52.420Z,34.43
2018-11-14T19:15:22.280Z,26.70
2018-11-14T19:17:51.363Z,27.90
2018-11-14T19:20:24.969Z,26.37
2018-11-14T19:22:54.839Z,24.70
2018-11-14T19:25:25.028Z,31.00
2018-11-14T19:27:53.676Z,42.80
2018-11-14T19:30:26.606Z,27.30
2018-11-14T19:32:55.844Z,26.90
2018-11-14T19:35:24.437Z,32.07
2018-11-14T19:37:54.665Z,30.13
2018-11-14T19:40:24.798Z,29.83
2018-11-14T19:42:55.984Z,35.13
2018-11-14T19:45:29.856Z,39.37
2018-11-14T19:47:58.617Z,33.07
2018-11-14T19:50:27.691Z,31.73
2018-11-14T19:52:56.544Z,57.27
2018-11-14T19:55:26.478Z,46.63
2018-11-14T19:57:56.468Z,36.67
2018-11-14T20:00:30.049Z,40.73
2018-11-14T20:02:58.649Z,36.13
2018-11-14T20:05:27.180Z,40.87
2018-11-14T20:07:56.557Z,46.50
2018-11-14T20:10:26.959Z,41.87
2018-11-14T20:12:55.544Z,52.57
2018-11-14T20:15:25.441Z,56.40
2018-11-14T20:17:54.187Z,48.03
2018-11-14T20:20:24.276Z,51.87
2018-11-14T20:22:52.875Z,57.10
2018-11-14T20:25:21.413Z,59.37
2018-11-14T20:27:50.033Z,57.63
2018-11-14T20:30:27.280Z,61.57
2018-11-14T20:32:57.077Z,47.37
2018-11-14T20:35:26.403Z,56.63
2018-11-14T20:37:54.968Z,56.53
2018-11-14T20:40:24.076Z,61.67
2018-11-14T20:42:53.331Z,57.30
2018-11-14T20:45:24.216Z,56.83
2018-11-14T20:47:52.840Z,60.43
2018-11-14T20:50:22.604Z,58.50
2018-11-14T20:52:53.760Z,50.03
2018-11-14T20:55:22.300Z,58.80
2018-11-14T20:57:50.809Z,61.90
2018-11-14T21:00:26.480Z,64.47
2018-11-14T21:02:55.449Z,53.37
2018-11-14T21:05:25.027Z,60.50
2018-11-14T21:07:53.826Z,62.57
2018-11-14T21:10:23.879Z,53.40
2018-11-14T21:12:52.995Z,61.17
2018-11-14T21:15:23.870Z,56.57
2018-11-14T21:17:53.108Z,64.60
2018-11-14T21:20:22.209Z,70.87
2018-11-14T21:22:51.507Z,47.63
2018-11-14T21:25:21.130Z,60.83
2018-11-14T21:27:50.305Z,57.87
2018-11-14T21:30:20.773Z,61.33
2018-11-14T21:32:49.308Z,65.13
2018-11-14T21:35:22.400Z,62.60
2018-11-14T21:37:52.292Z,62.17
2018-11-14T21:40:20.884Z,67.77
2018-11-14T21:42:49.568Z,66.53
2018-11-14T21:45:19.377Z,64.17
2018-11-14T21:47:53.208Z,60.93
2018-11-14T21:50:22.891Z,60.57
2018-11-14T21:52:51.399Z,65.90
2018-11-14T21:55:20.075Z,61.30
2018-11-14T21:57:48.636Z,60.70
2018-11-14T22:00:18.572Z,57.67
2018-11-14T22:02:49.545Z,54.47
2018-11-14T22:05:18.044Z,54.07
2018-11-14T22:07:46.524Z,58.07
2018-11-14T22:10:16.759Z,59.90
2018-11-14T22:12:45.910Z,53.43
2018-11-14T22:15:15.347Z,51.53
2018-11-14T22:17:44.415Z,54.67
2018-11-14T22:20:14.220Z,56.80
2018-11-14T22:22:43.617Z,58.70
2018-11-14T22:25:13.278Z,62.27
2018-11-14T22:27:41.966Z,51.03
2018-11-14T22:30:14.868Z,51.27
2018-11-14T22:32:43.581Z,56.23
2018-11-14T22:35:14.626Z,60.67
2018-11-14T22:37:43.127Z,53.93
2018-11-14T22:40:13.831Z,63.03
2018-11-14T22:42:42.555Z,67.50
2018-11-14T22:45:13.685Z,60.00
2018-11-14T22:47:43.096Z,53.77
2018-11-14T22:50:13.400Z,57.27
2018-11-14T22:52:42.615Z,59.97
2018-11-14T22:55:12.672Z,55.43
2018-11-14T22:57:41.953Z,58.93
2018-11-14T23:00:45.262Z,48.77
2018-11-14T23:03:14.648Z,53.70
2018-11-14T23:05:43.326Z,62.43
2018-11-14T23:08:11.979Z,63.07
2018-11-14T23:10:40.537Z,59.97
2018-11-14T23:13:09.165Z,51.17
2018-11-14T23:15:37.829Z,55.83
2018-11-14T23:18:06.560Z,56.10
2018-11-14T23:20:35.076Z,58.40
2018-11-14T23:23:03.668Z,45.40
2018-11-14T23:25:32.296Z,39.70
2018-11-14T23:28:00.884Z,42.07
2018-11-14T23:30:29.436Z,38.80
2018-11-14T23:32:58.315Z,47.23
2018-11-14T23:35:28.592Z,46.33
2018-11-14T23:37:58.383Z,34.10
2018-11-14T23:40:27.260Z,47.80
2018-11-14T23:42:56.177Z,46.00
2018-11-14T23:45:25.481Z,48.77
2018-11-14T23:47:54.000Z,51.90
2018-11-14T23:50:23.748Z,44.00
2018-11-14T23:52:53.347Z,41.53
2018-11-14T23:55:22.713Z,53.63
2018-11-14T23:57:51.320Z,50.70
